sensor_id;sensor_type;location;lat;lon;timestamp;temperature;humidity
46608;DHT22;32330;51.936;7.184;2023-12-22T00:01:56;5.80;99.90
46608;DHT22;32330;51.936;7.184;2023-12-22T00:04:35;5.80;99.90
46608;DHT22;32330;51.936;7.184;2023-12-22T00:07:02;5.80;99.90
46608;DHT22;32330;51.936;7.184;2023-12-22T00:09:30;5.80;99.90
46608;DHT22;32330;51.936;7.184;2023-12-22T00:11:58;5.80;99.90
46608;DHT22;32330;51.936;7.184;2023-12-22T00:14:25;5.80;99.90
46608;DHT22;32330;51.936;7.184;2023-12-22T00:16:53;5.80;99.90
46608;DHT22;32330;51.936;7.184;2023-12-22T00:19:23;5.70;99.90
46608;DHT22;32330;51.936;7.184;2023-12-22T00:21:52;5.70;99.90
46608;DHT22;32330;51.936;7.184;2023-12-22T00:24:20;5.70;99.90
46608;DHT22;32330;51.936;7.184;2023-12-22T00:26:47;5.70;99.90
46608;DHT22;32330;51.936;7.184;2023-12-22T00:29:16;5.70;99.90
46608;DHT22;32330;51.936;7.184;2023-12-22T00:31:43;5.60;99.90
46608;DHT22;32330;51.936;7.184;2023-12-22T00:34:10;5.60;99.90
46608;DHT22;32330;51.936;7.184;2023-12-22T00:36:37;5.60;99.90
46608;DHT22;32330;51.936;7.184;2023-12-22T00:39:04;5.60;99.90
46608;DHT22;32330;51.936;7.184;2023-12-22T00:41:31;5.60;99.90
46608;DHT22;32330;51.936;7.184;2023-12-22T00:43:58;5.60;99.90
46608;DHT22;32330;51.936;7.184;2023-12-22T00:46:26;5.60;99.90
46608;DHT22;32330;51.936;7.184;2023-12-22T00:48:53;5.60;99.90
46608;DHT22;32330;51.936;7.184;2023-12-22T00:51:20;5.50;99.90
46608;DHT22;32330;51.936;7.184;2023-12-22T00:53:47;5.60;99.90
46608;DHT22;32330;51.936;7.184;2023-12-22T00:56:14;5.60;99.90
46608;DHT22;32330;51.936;7.184;2023-12-22T00:58:42;5.60;99.90
46608;DHT22;32330;51.936;7.184;2023-12-22T01:01:09;5.60;99.90
46608;DHT22;32330;51.936;7.184;2023-12-22T01:03:37;5.60;99.90
46608;DHT22;32330;51.936;7.184;2023-12-22T01:06:04;5.60;99.90
46608;DHT22;32330;51.936;7.184;2023-12-22T01:08:32;5.70;99.90
46608;DHT22;32330;51.936;7.184;2023-12-22T01:10:59;5.70;99.90
46608;DHT22;32330;51.936;7.184;2023-12-22T01:13:26;5.70;99.90
46608;DHT22;32330;51.936;7.184;2023-12-22T01:15:56;5.70;99.90
46608;DHT22;32330;51.936;7.184;2023-12-22T01:18:23;5.70;99.90
46608;DHT22;32330;51.936;7.184;2023-12-22T01:20:56;5.70;99.90
46608;DHT22;32330;51.936;7.184;2023-12-22T01:23:23;5.70;99.90
46608;DHT22;32330;51.936;7.184;2023-12-22T01:25:51;5.70;99.90
46608;DHT22;32330;51.936;7.184;2023-12-22T01:28:18;5.80;99.90
46608;DHT22;32330;51.936;7.184;2023-12-22T01:30:45;5.80;99.90
46608;DHT22;32330;51.936;7.184;2023-12-22T01:33:12;5.80;99.90
46608;DHT22;32330;51.936;7.184;2023-12-22T01:35:39;5.80;99.90
46608;DHT22;32330;51.936;7.184;2023-12-22T01:38:10;5.80;99.90
46608;DHT22;32330;51.936;7.184;2023-12-22T01:40:38;5.90;99.90
46608;DHT22;32330;51.936;7.184;2023-12-22T01:43:05;5.80;99.90
46608;DHT22;32330;51.936;7.184;2023-12-22T01:45:33;5.90;99.90
46608;DHT22;32330;51.936;7.184;2023-12-22T01:48:01;6.00;99.90
46608;DHT22;32330;51.936;7.184;2023-12-22T01:50:28;6.00;99.90
46608;DHT22;32330;51.936;7.184;2023-12-22T01:52:56;6.00;99.90
46608;DHT22;32330;51.936;7.184;2023-12-22T01:55:25;6.00;99.90
46608;DHT22;32330;51.936;7.184;2023-12-22T01:57:52;6.00;99.90
46608;DHT22;32330;51.936;7.184;2023-12-22T02:00:20;6.00;99.90
46608;DHT22;32330;51.936;7.184;2023-12-22T02:02:47;6.00;99.90
46608;DHT22;32330;51.936;7.184;2023-12-22T02:05:15;6.00;99.90
46608;DHT22;32330;51.936;7.184;2023-12-22T02:07:43;6.10;99.90
46608;DHT22;32330;51.936;7.184;2023-12-22T02:10:10;6.10;99.90
46608;DHT22;32330;51.936;7.184;2023-12-22T02:12:39;6.10;99.90
46608;DHT22;32330;51.936;7.184;2023-12-22T02:15:07;6.10;99.90
46608;DHT22;32330;51.936;7.184;2023-12-22T02:17:46;6.10;99.90
46608;DHT22;32330;51.936;7.184;2023-12-22T02:20:16;6.10;99.90
46608;DHT22;32330;51.936;7.184;2023-12-22T02:22:45;6.20;99.90
46608;DHT22;32330;51.936;7.184;2023-12-22T02:25:17;6.10;99.90
46608;DHT22;32330;51.936;7.184;2023-12-22T02:27:46;6.10;99.90
46608;DHT22;32330;51.936;7.184;2023-12-22T02:30:22;6.10;99.90
46608;DHT22;32330;51.936;7.184;2023-12-22T02:32:53;6.10;99.90
46608;DHT22;32330;51.936;7.184;2023-12-22T02:35:24;6.20;99.90
46608;DHT22;32330;51.936;7.184;2023-12-22T02:37:54;6.20;99.90
46608;DHT22;32330;51.936;7.184;2023-12-22T02:40:24;6.10;99.90
46608;DHT22;32330;51.936;7.184;2023-12-22T02:42:53;6.20;99.90
46608;DHT22;32330;51.936;7.184;2023-12-22T02:45:23;6.20;99.90
46608;DHT22;32330;51.936;7.184;2023-12-22T02:47:51;6.20;99.90
46608;DHT22;32330;51.936;7.184;2023-12-22T02:50:18;6.10;99.90
46608;DHT22;32330;51.936;7.184;2023-12-22T02:52:45;5.90;99.90
46608;DHT22;32330;51.936;7.184;2023-12-22T02:55:14;5.80;99.90
46608;DHT22;32330;51.936;7.184;2023-12-22T02:57:41;5.60;99.90
46608;DHT22;32330;51.936;7.184;2023-12-22T03:00:08;5.60;99.90
46608;DHT22;32330;51.936;7.184;2023-12-22T03:02:35;5.50;99.90
46608;DHT22;32330;51.936;7.184;2023-12-22T03:05:03;5.50;99.90
46608;DHT22;32330;51.936;7.184;2023-12-22T03:07:30;5.40;99.90
46608;DHT22;32330;51.936;7.184;2023-12-22T03:09:57;5.20;99.90
46608;DHT22;32330;51.936;7.184;2023-12-22T03:12:26;5.20;99.90
46608;DHT22;32330;51.936;7.184;2023-12-22T03:14:54;5.10;99.90
46608;DHT22;32330;51.936;7.184;2023-12-22T03:17:21;5.00;99.90
46608;DHT22;32330;51.936;7.184;2023-12-22T03:19:48;5.00;99.90
46608;DHT22;32330;51.936;7.184;2023-12-22T03:22:15;5.20;99.90
46608;DHT22;32330;51.936;7.184;2023-12-22T03:24:43;5.30;99.90
46608;DHT22;32330;51.936;7.184;2023-12-22T03:27:10;5.20;99.90
46608;DHT22;32330;51.936;7.184;2023-12-22T03:29:43;5.30;99.90
46608;DHT22;32330;51.936;7.184;2023-12-22T03:32:13;5.30;99.90
46608;DHT22;32330;51.936;7.184;2023-12-22T03:34:40;5.40;99.90
46608;DHT22;32330;51.936;7.184;2023-12-22T03:37:08;5.40;99.90
46608;DHT22;32330;51.936;7.184;2023-12-22T03:39:39;5.40;99.90
46608;DHT22;32330;51.936;7.184;2023-12-22T03:42:10;5.40;99.90
46608;DHT22;32330;51.936;7.184;2023-12-22T03:44:37;5.40;99.90
46608;DHT22;32330;51.936;7.184;2023-12-22T03:47:06;5.40;99.90
46608;DHT22;32330;51.936;7.184;2023-12-22T03:49:33;5.40;99.90
46608;DHT22;32330;51.936;7.184;2023-12-22T03:52:00;5.40;99.90
46608;DHT22;32330;51.936;7.184;2023-12-22T03:54:27;5.40;99.90
46608;DHT22;32330;51.936;7.184;2023-12-22T03:56:54;5.40;99.90
46608;DHT22;32330;51.936;7.184;2023-12-22T03:59:22;5.50;99.90
46608;DHT22;32330;51.936;7.184;2023-12-22T04:01:52;5.40;99.90
46608;DHT22;32330;51.936;7.184;2023-12-22T04:04:22;5.40;99.90
46608;DHT22;32330;51.936;7.184;2023-12-22T04:06:49;5.50;99.90
46608;DHT22;32330;51.936;7.184;2023-12-22T04:09:16;5.50;99.90
46608;DHT22;32330;51.936;7.184;2023-12-22T04:11:50;5.40;99.90
46608;DHT22;32330;51.936;7.184;2023-12-22T04:14:18;5.40;99.90
46608;DHT22;32330;51.936;7.184;2023-12-22T04:16:45;5.40;99.90
46608;DHT22;32330;51.936;7.184;2023-12-22T04:19:12;5.40;99.90
46608;DHT22;32330;51.936;7.184;2023-12-22T04:21:41;5.30;99.90
46608;DHT22;32330;51.936;7.184;2023-12-22T04:24:08;5.40;99.90
46608;DHT22;32330;51.936;7.184;2023-12-22T04:26:36;5.30;99.90
46608;DHT22;32330;51.936;7.184;2023-12-22T04:29:03;5.30;99.90
46608;DHT22;32330;51.936;7.184;2023-12-22T04:31:30;5.30;99.90
46608;DHT22;32330;51.936;7.184;2023-12-22T04:33:57;5.30;99.90
46608;DHT22;32330;51.936;7.184;2023-12-22T04:36:24;5.30;99.90
46608;DHT22;32330;51.936;7.184;2023-12-22T04:38:53;5.30;99.90
46608;DHT22;32330;51.936;7.184;2023-12-22T04:41:20;5.30;99.90
46608;DHT22;32330;51.936;7.184;2023-12-22T04:43:48;5.30;99.90
46608;DHT22;32330;51.936;7.184;2023-12-22T04:46:16;5.20;99.90
46608;DHT22;32330;51.936;7.184;2023-12-22T04:48:43;5.30;99.90
46608;DHT22;32330;51.936;7.184;2023-12-22T04:51:10;5.20;99.90
46608;DHT22;32330;51.936;7.184;2023-12-22T04:53:37;5.30;99.90
46608;DHT22;32330;51.936;7.184;2023-12-22T04:56:06;5.30;99.90
46608;DHT22;32330;51.936;7.184;2023-12-22T04:58:33;5.40;99.90
46608;DHT22;32330;51.936;7.184;2023-12-22T05:01:00;5.30;99.90
46608;DHT22;32330;51.936;7.184;2023-12-22T05:03:28;5.40;99.90
46608;DHT22;32330;51.936;7.184;2023-12-22T05:05:55;5.40;99.90
46608;DHT22;32330;51.936;7.184;2023-12-22T05:08:22;5.30;99.90
46608;DHT22;32330;51.936;7.184;2023-12-22T05:10:50;5.30;99.90
46608;DHT22;32330;51.936;7.184;2023-12-22T05:13:20;5.40;99.90
46608;DHT22;32330;51.936;7.184;2023-12-22T05:15:47;5.30;99.90
46608;DHT22;32330;51.936;7.184;2023-12-22T05:18:15;5.30;99.90
46608;DHT22;32330;51.936;7.184;2023-12-22T05:20:43;5.30;99.90
46608;DHT22;32330;51.936;7.184;2023-12-22T05:23:11;5.40;99.90
46608;DHT22;32330;51.936;7.184;2023-12-22T05:25:38;5.40;99.90
46608;DHT22;32330;51.936;7.184;2023-12-22T05:28:06;5.40;99.90
46608;DHT22;32330;51.936;7.184;2023-12-22T05:30:35;5.40;99.90
46608;DHT22;32330;51.936;7.184;2023-12-22T05:33:02;5.40;99.90
46608;DHT22;32330;51.936;7.184;2023-12-22T05:35:30;5.40;99.90
46608;DHT22;32330;51.936;7.184;2023-12-22T05:37:57;5.40;99.90
46608;DHT22;32330;51.936;7.184;2023-12-22T05:40:24;5.40;99.90
46608;DHT22;32330;51.936;7.184;2023-12-22T05:42:51;5.50;99.90
46608;DHT22;32330;51.936;7.184;2023-12-22T05:45:18;5.50;99.90
46608;DHT22;32330;51.936;7.184;2023-12-22T05:47:47;5.50;99.90
46608;DHT22;32330;51.936;7.184;2023-12-22T05:50:14;5.50;99.90
46608;DHT22;32330;51.936;7.184;2023-12-22T05:52:41;5.60;99.90
46608;DHT22;32330;51.936;7.184;2023-12-22T05:55:09;5.60;99.90
46608;DHT22;32330;51.936;7.184;2023-12-22T05:57:36;5.60;99.90
46608;DHT22;32330;51.936;7.184;2023-12-22T06:00:05;5.60;99.90
46608;DHT22;32330;51.936;7.184;2023-12-22T06:02:33;5.60;99.90
46608;DHT22;32330;51.936;7.184;2023-12-22T06:05:02;5.60;99.90
46608;DHT22;32330;51.936;7.184;2023-12-22T06:07:29;5.60;99.90
46608;DHT22;32330;51.936;7.184;2023-12-22T06:09:56;5.60;99.90
46608;DHT22;32330;51.936;7.184;2023-12-22T06:12:23;5.60;99.90
46608;DHT22;32330;51.936;7.184;2023-12-22T06:14:51;5.70;99.90
46608;DHT22;32330;51.936;7.184;2023-12-22T06:17:18;5.70;99.90
46608;DHT22;32330;51.936;7.184;2023-12-22T06:19:45;5.70;99.90
46608;DHT22;32330;51.936;7.184;2023-12-22T06:22:14;5.70;99.90
46608;DHT22;32330;51.936;7.184;2023-12-22T06:24:41;5.80;99.90
46608;DHT22;32330;51.936;7.184;2023-12-22T06:27:08;5.80;99.90
46608;DHT22;32330;51.936;7.184;2023-12-22T06:29:36;5.80;99.90
46608;DHT22;32330;51.936;7.184;2023-12-22T06:32:03;5.80;99.90
46608;DHT22;32330;51.936;7.184;2023-12-22T06:34:34;5.80;99.90
46608;DHT22;32330;51.936;7.184;2023-12-22T06:37:01;5.90;99.90
46608;DHT22;32330;51.936;7.184;2023-12-22T06:39:30;5.80;99.90
46608;DHT22;32330;51.936;7.184;2023-12-22T06:41:57;5.80;99.90
46608;DHT22;32330;51.936;7.184;2023-12-22T06:44:24;5.90;99.90
46608;DHT22;32330;51.936;7.184;2023-12-22T06:46:52;5.90;99.90
46608;DHT22;32330;51.936;7.184;2023-12-22T06:49:19;5.90;99.90
46608;DHT22;32330;51.936;7.184;2023-12-22T06:51:47;5.90;99.90
46608;DHT22;32330;51.936;7.184;2023-12-22T06:54:15;5.90;99.90
46608;DHT22;32330;51.936;7.184;2023-12-22T06:56:43;5.90;99.90
46608;DHT22;32330;51.936;7.184;2023-12-22T06:59:10;5.90;99.90
46608;DHT22;32330;51.936;7.184;2023-12-22T07:01:38;5.90;99.90
46608;DHT22;32330;51.936;7.184;2023-12-22T07:04:05;5.90;99.90
46608;DHT22;32330;51.936;7.184;2023-12-22T07:06:33;5.90;99.90
46608;DHT22;32330;51.936;7.184;2023-12-22T07:09:32;5.90;99.90
46608;DHT22;32330;51.936;7.184;2023-12-22T07:12:00;5.90;99.90
46608;DHT22;32330;51.936;7.184;2023-12-22T07:14:29;6.00;99.90
46608;DHT22;32330;51.936;7.184;2023-12-22T07:16:57;6.00;99.90
46608;DHT22;32330;51.936;7.184;2023-12-22T07:19:26;5.90;99.90
46608;DHT22;32330;51.936;7.184;2023-12-22T07:21:54;6.00;99.90
46608;DHT22;32330;51.936;7.184;2023-12-22T07:24:21;6.00;99.90
46608;DHT22;32330;51.936;7.184;2023-12-22T07:26:48;5.90;99.90
46608;DHT22;32330;51.936;7.184;2023-12-22T07:29:17;5.90;99.90
46608;DHT22;32330;51.936;7.184;2023-12-22T07:31:45;5.90;99.90
46608;DHT22;32330;51.936;7.184;2023-12-22T07:34:13;5.90;99.90
46608;DHT22;32330;51.936;7.184;2023-12-22T07:36:40;5.90;99.90
46608;DHT22;32330;51.936;7.184;2023-12-22T07:39:07;5.90;99.90
46608;DHT22;32330;51.936;7.184;2023-12-22T07:41:35;5.90;99.90
46608;DHT22;32330;51.936;7.184;2023-12-22T07:44:02;5.90;99.90
46608;DHT22;32330;51.936;7.184;2023-12-22T07:46:30;5.90;99.90
46608;DHT22;32330;51.936;7.184;2023-12-22T07:48:57;5.90;99.90
46608;DHT22;32330;51.936;7.184;2023-12-22T07:51:24;5.90;99.90
46608;DHT22;32330;51.936;7.184;2023-12-22T07:53:51;5.80;99.90
46608;DHT22;32330;51.936;7.184;2023-12-22T07:56:19;5.80;99.90
46608;DHT22;32330;51.936;7.184;2023-12-22T08:05:30;5.70;99.90
46608;DHT22;32330;51.936;7.184;2023-12-22T08:07:59;5.70;99.90
46608;DHT22;32330;51.936;7.184;2023-12-22T08:10:25;5.80;99.90
46608;DHT22;32330;51.936;7.184;2023-12-22T08:12:53;5.80;99.90
46608;DHT22;32330;51.936;7.184;2023-12-22T08:15:20;5.80;99.90
46608;DHT22;32330;51.936;7.184;2023-12-22T08:17:48;5.80;99.90
46608;DHT22;32330;51.936;7.184;2023-12-22T08:20:17;5.80;99.90
46608;DHT22;32330;51.936;7.184;2023-12-22T08:22:45;5.80;99.90
46608;DHT22;32330;51.936;7.184;2023-12-22T08:25:12;5.80;99.90
46608;DHT22;32330;51.936;7.184;2023-12-22T08:27:39;5.80;99.90
46608;DHT22;32330;51.936;7.184;2023-12-22T08:30:07;5.70;99.90
46608;DHT22;32330;51.936;7.184;2023-12-22T08:32:34;5.70;99.90
46608;DHT22;32330;51.936;7.184;2023-12-22T08:35:03;5.70;99.90
46608;DHT22;32330;51.936;7.184;2023-12-22T08:37:31;5.70;99.90
46608;DHT22;32330;51.936;7.184;2023-12-22T08:40:07;5.70;99.90
46608;DHT22;32330;51.936;7.184;2023-12-22T08:42:37;5.70;99.90
46608;DHT22;32330;51.936;7.184;2023-12-22T08:45:05;5.70;99.90
46608;DHT22;32330;51.936;7.184;2023-12-22T08:47:39;5.70;99.90
46608;DHT22;32330;51.936;7.184;2023-12-22T08:50:09;5.80;99.90
46608;DHT22;32330;51.936;7.184;2023-12-22T08:52:38;5.70;99.90
46608;DHT22;32330;51.936;7.184;2023-12-22T08:55:06;5.60;99.90
46608;DHT22;32330;51.936;7.184;2023-12-22T08:57:34;5.50;99.90
46608;DHT22;32330;51.936;7.184;2023-12-22T09:00:01;5.60;99.90
46608;DHT22;32330;51.936;7.184;2023-12-22T09:02:29;5.50;99.90
46608;DHT22;32330;51.936;7.184;2023-12-22T09:04:56;5.50;99.90
46608;DHT22;32330;51.936;7.184;2023-12-22T09:07:25;5.60;99.90
46608;DHT22;32330;51.936;7.184;2023-12-22T09:09:52;5.60;99.90
46608;DHT22;32330;51.936;7.184;2023-12-22T09:12:20;5.60;99.90
46608;DHT22;32330;51.936;7.184;2023-12-22T09:14:52;5.60;99.90
46608;DHT22;32330;51.936;7.184;2023-12-22T09:17:19;5.70;99.90
46608;DHT22;32330;51.936;7.184;2023-12-22T09:19:45;5.70;99.90
46608;DHT22;32330;51.936;7.184;2023-12-22T09:22:17;5.70;99.90
46608;DHT22;32330;51.936;7.184;2023-12-22T09:24:51;5.70;99.90
46608;DHT22;32330;51.936;7.184;2023-12-22T09:27:18;5.70;99.90
46608;DHT22;32330;51.936;7.184;2023-12-22T09:29:45;5.80;99.90
46608;DHT22;32330;51.936;7.184;2023-12-22T09:32:12;5.80;99.90
46608;DHT22;32330;51.936;7.184;2023-12-22T09:34:41;5.90;99.90
46608;DHT22;32330;51.936;7.184;2023-12-22T09:37:08;5.90;99.90
46608;DHT22;32330;51.936;7.184;2023-12-22T09:39:35;5.90;99.90
46608;DHT22;32330;51.936;7.184;2023-12-22T09:42:05;5.90;99.90
46608;DHT22;32330;51.936;7.184;2023-12-22T09:44:32;5.90;99.90
46608;DHT22;32330;51.936;7.184;2023-12-22T09:47:03;5.90;99.90
46608;DHT22;32330;51.936;7.184;2023-12-22T09:49:31;5.90;99.90
46608;DHT22;32330;51.936;7.184;2023-12-22T09:51:59;6.00;99.90
46608;DHT22;32330;51.936;7.184;2023-12-22T09:54:38;6.00;99.90
46608;DHT22;32330;51.936;7.184;2023-12-22T09:57:08;6.00;99.90
46608;DHT22;32330;51.936;7.184;2023-12-22T09:59:35;6.00;99.90
46608;DHT22;32330;51.936;7.184;2023-12-22T10:02:04;6.00;99.90
46608;DHT22;32330;51.936;7.184;2023-12-22T10:04:33;6.10;99.90
46608;DHT22;32330;51.936;7.184;2023-12-22T10:07:01;6.10;99.90
46608;DHT22;32330;51.936;7.184;2023-12-22T10:09:30;6.10;99.90
46608;DHT22;32330;51.936;7.184;2023-12-22T10:11:57;6.20;99.90
46608;DHT22;32330;51.936;7.184;2023-12-22T10:14:26;6.20;99.90
46608;DHT22;32330;51.936;7.184;2023-12-22T10:16:54;6.20;99.90
46608;DHT22;32330;51.936;7.184;2023-12-22T10:19:21;6.20;99.90
46608;DHT22;32330;51.936;7.184;2023-12-22T10:21:48;6.20;99.90
46608;DHT22;32330;51.936;7.184;2023-12-22T10:24:38;6.30;99.90
46608;DHT22;32330;51.936;7.184;2023-12-22T10:27:08;6.30;99.90
46608;DHT22;32330;51.936;7.184;2023-12-22T10:29:36;6.30;99.90
46608;DHT22;32330;51.936;7.184;2023-12-22T10:32:06;6.40;99.90
46608;DHT22;32330;51.936;7.184;2023-12-22T10:34:33;6.40;99.90
46608;DHT22;32330;51.936;7.184;2023-12-22T10:37:01;6.50;99.90
46608;DHT22;32330;51.936;7.184;2023-12-22T10:39:28;6.50;99.90
46608;DHT22;32330;51.936;7.184;2023-12-22T10:41:56;6.50;99.90
46608;DHT22;32330;51.936;7.184;2023-12-22T10:44:24;6.60;99.90
46608;DHT22;32330;51.936;7.184;2023-12-22T10:46:52;6.60;99.90
46608;DHT22;32330;51.936;7.184;2023-12-22T10:49:20;6.70;99.90
46608;DHT22;32330;51.936;7.184;2023-12-22T10:51:47;6.80;99.90
46608;DHT22;32330;51.936;7.184;2023-12-22T10:54:14;6.90;99.90
46608;DHT22;32330;51.936;7.184;2023-12-22T10:56:42;6.90;99.90
46608;DHT22;32330;51.936;7.184;2023-12-22T10:59:09;6.90;99.90
46608;DHT22;32330;51.936;7.184;2023-12-22T11:01:37;7.00;99.90
46608;DHT22;32330;51.936;7.184;2023-12-22T11:04:07;7.10;99.90
46608;DHT22;32330;51.936;7.184;2023-12-22T11:06:37;7.20;99.90
46608;DHT22;32330;51.936;7.184;2023-12-22T11:09:06;7.30;99.90
46608;DHT22;32330;51.936;7.184;2023-12-22T11:11:36;7.30;99.90
46608;DHT22;32330;51.936;7.184;2023-12-22T11:14:04;7.00;99.90
46608;DHT22;32330;51.936;7.184;2023-12-22T11:16:32;6.90;99.90
46608;DHT22;32330;51.936;7.184;2023-12-22T11:19:01;6.70;99.90
46608;DHT22;32330;51.936;7.184;2023-12-22T11:21:30;6.80;99.90
46608;DHT22;32330;51.936;7.184;2023-12-22T11:23:58;6.70;99.90
46608;DHT22;32330;51.936;7.184;2023-12-22T11:26:25;6.70;99.90
46608;DHT22;32330;51.936;7.184;2023-12-22T11:28:52;6.60;99.90
46608;DHT22;32330;51.936;7.184;2023-12-22T11:31:20;6.70;99.90
46608;DHT22;32330;51.936;7.184;2023-12-22T11:33:48;6.60;99.90
46608;DHT22;32330;51.936;7.184;2023-12-22T11:36:17;6.60;99.90
46608;DHT22;32330;51.936;7.184;2023-12-22T11:38:46;6.60;99.90
46608;DHT22;32330;51.936;7.184;2023-12-22T11:41:17;6.50;99.90
46608;DHT22;32330;51.936;7.184;2023-12-22T11:43:45;6.50;99.90
46608;DHT22;32330;51.936;7.184;2023-12-22T11:46:12;6.60;99.90
46608;DHT22;32330;51.936;7.184;2023-12-22T11:48:47;6.60;99.90
46608;DHT22;32330;51.936;7.184;2023-12-22T11:51:15;6.50;99.90
46608;DHT22;32330;51.936;7.184;2023-12-22T11:53:42;6.50;99.90
46608;DHT22;32330;51.936;7.184;2023-12-22T11:56:11;6.50;99.90
46608;DHT22;32330;51.936;7.184;2023-12-22T11:58:40;6.50;99.90
46608;DHT22;32330;51.936;7.184;2023-12-22T12:01:08;6.40;99.90
46608;DHT22;32330;51.936;7.184;2023-12-22T12:03:37;6.50;99.90
46608;DHT22;32330;51.936;7.184;2023-12-22T12:06:16;6.40;99.90
46608;DHT22;32330;51.936;7.184;2023-12-22T12:08:43;6.40;99.90
46608;DHT22;32330;51.936;7.184;2023-12-22T12:11:12;6.50;99.90
46608;DHT22;32330;51.936;7.184;2023-12-22T12:13:42;6.50;99.90
46608;DHT22;32330;51.936;7.184;2023-12-22T12:16:11;6.50;99.90
46608;DHT22;32330;51.936;7.184;2023-12-22T12:18:39;6.50;99.90
46608;DHT22;32330;51.936;7.184;2023-12-22T12:21:07;6.60;99.90
46608;DHT22;32330;51.936;7.184;2023-12-22T12:23:34;6.60;99.90
46608;DHT22;32330;51.936;7.184;2023-12-22T12:26:01;6.60;99.90
46608;DHT22;32330;51.936;7.184;2023-12-22T12:28:32;6.60;99.90
46608;DHT22;32330;51.936;7.184;2023-12-22T12:31:00;6.60;99.90
46608;DHT22;32330;51.936;7.184;2023-12-22T12:33:27;6.70;99.90
46608;DHT22;32330;51.936;7.184;2023-12-22T12:35:56;6.70;99.90
46608;DHT22;32330;51.936;7.184;2023-12-22T12:38:40;6.70;99.90
46608;DHT22;32330;51.936;7.184;2023-12-22T12:41:10;6.70;99.90
46608;DHT22;32330;51.936;7.184;2023-12-22T12:43:42;6.80;99.90
46608;DHT22;32330;51.936;7.184;2023-12-22T12:46:09;6.80;99.90
46608;DHT22;32330;51.936;7.184;2023-12-22T12:48:36;6.80;99.90
46608;DHT22;32330;51.936;7.184;2023-12-22T12:51:04;6.80;99.90
46608;DHT22;32330;51.936;7.184;2023-12-22T12:53:31;6.80;99.90
46608;DHT22;32330;51.936;7.184;2023-12-22T12:56:00;6.70;99.90
46608;DHT22;32330;51.936;7.184;2023-12-22T12:58:28;6.70;99.90
46608;DHT22;32330;51.936;7.184;2023-12-22T13:01:06;6.80;99.90
46608;DHT22;32330;51.936;7.184;2023-12-22T13:03:52;6.80;99.90
46608;DHT22;32330;51.936;7.184;2023-12-22T13:06:20;6.90;99.90
46608;DHT22;32330;51.936;7.184;2023-12-22T13:08:48;7.00;99.90
46608;DHT22;32330;51.936;7.184;2023-12-22T13:11:15;7.00;99.90
46608;DHT22;32330;51.936;7.184;2023-12-22T13:13:43;7.10;99.90
46608;DHT22;32330;51.936;7.184;2023-12-22T13:16:11;7.10;99.90
46608;DHT22;32330;51.936;7.184;2023-12-22T13:18:38;7.10;99.90
46608;DHT22;32330;51.936;7.184;2023-12-22T13:21:06;7.10;99.90
46608;DHT22;32330;51.936;7.184;2023-12-22T13:23:33;7.10;99.90
46608;DHT22;32330;51.936;7.184;2023-12-22T13:26:00;7.10;99.90
46608;DHT22;32330;51.936;7.184;2023-12-22T13:28:27;7.10;99.90
46608;DHT22;32330;51.936;7.184;2023-12-22T13:30:55;7.10;99.90
46608;DHT22;32330;51.936;7.184;2023-12-22T13:33:23;7.10;99.90
46608;DHT22;32330;51.936;7.184;2023-12-22T13:35:56;7.20;99.90
46608;DHT22;32330;51.936;7.184;2023-12-22T13:38:24;7.10;99.90
46608;DHT22;32330;51.936;7.184;2023-12-22T13:40:52;7.10;99.90
46608;DHT22;32330;51.936;7.184;2023-12-22T13:43:19;7.10;99.90
46608;DHT22;32330;51.936;7.184;2023-12-22T13:45:49;7.10;99.90
46608;DHT22;32330;51.936;7.184;2023-12-22T13:48:16;7.10;99.90
46608;DHT22;32330;51.936;7.184;2023-12-22T13:50:55;7.00;99.90
46608;DHT22;32330;51.936;7.184;2023-12-22T13:53:22;6.90;99.90
46608;DHT22;32330;51.936;7.184;2023-12-22T13:55:54;6.80;99.90
46608;DHT22;32330;51.936;7.184;2023-12-22T13:58:23;6.70;99.90
46608;DHT22;32330;51.936;7.184;2023-12-22T14:00:50;6.60;99.90
46608;DHT22;32330;51.936;7.184;2023-12-22T14:03:17;6.70;99.90
46608;DHT22;32330;51.936;7.184;2023-12-22T14:05:48;6.70;99.90
46608;DHT22;32330;51.936;7.184;2023-12-22T14:08:16;6.70;99.90
46608;DHT22;32330;51.936;7.184;2023-12-22T14:10:46;6.70;99.90
46608;DHT22;32330;51.936;7.184;2023-12-22T14:13:14;6.70;99.90
46608;DHT22;32330;51.936;7.184;2023-12-22T14:15:41;6.70;99.90
46608;DHT22;32330;51.936;7.184;2023-12-22T14:18:09;6.70;99.90
46608;DHT22;32330;51.936;7.184;2023-12-22T14:20:36;6.70;99.90
46608;DHT22;32330;51.936;7.184;2023-12-22T14:23:08;6.70;99.90
46608;DHT22;32330;51.936;7.184;2023-12-22T14:25:37;6.70;99.90
46608;DHT22;32330;51.936;7.184;2023-12-22T14:28:04;6.70;99.90
46608;DHT22;32330;51.936;7.184;2023-12-22T14:30:31;6.70;99.90
46608;DHT22;32330;51.936;7.184;2023-12-22T14:32:59;6.70;99.90
46608;DHT22;32330;51.936;7.184;2023-12-22T14:35:26;6.70;99.90
46608;DHT22;32330;51.936;7.184;2023-12-22T14:37:53;6.80;99.90
46608;DHT22;32330;51.936;7.184;2023-12-22T14:40:21;6.80;99.90
46608;DHT22;32330;51.936;7.184;2023-12-22T14:42:49;6.70;99.90
46608;DHT22;32330;51.936;7.184;2023-12-22T14:45:16;6.70;99.90
46608;DHT22;32330;51.936;7.184;2023-12-22T14:47:43;6.70;99.90
46608;DHT22;32330;51.936;7.184;2023-12-22T14:50:10;6.70;99.90
46608;DHT22;32330;51.936;7.184;2023-12-22T14:52:37;6.80;99.90
46608;DHT22;32330;51.936;7.184;2023-12-22T14:55:08;6.80;99.90
46608;DHT22;32330;51.936;7.184;2023-12-22T14:57:37;6.80;99.90
46608;DHT22;32330;51.936;7.184;2023-12-22T15:00:06;6.80;99.90
46608;DHT22;32330;51.936;7.184;2023-12-22T15:02:35;6.80;99.90
46608;DHT22;32330;51.936;7.184;2023-12-22T15:05:02;6.80;99.90
46608;DHT22;32330;51.936;7.184;2023-12-22T15:07:29;6.80;99.90
46608;DHT22;32330;51.936;7.184;2023-12-22T15:09:56;6.80;99.90
46608;DHT22;32330;51.936;7.184;2023-12-22T15:12:24;6.80;99.90
46608;DHT22;32330;51.936;7.184;2023-12-22T15:14:52;6.90;99.90
46608;DHT22;32330;51.936;7.184;2023-12-22T15:17:19;6.90;99.90
46608;DHT22;32330;51.936;7.184;2023-12-22T15:19:46;7.00;99.90
46608;DHT22;32330;51.936;7.184;2023-12-22T15:22:13;7.10;99.90
46608;DHT22;32330;51.936;7.184;2023-12-22T15:24:41;7.20;99.90
46608;DHT22;32330;51.936;7.184;2023-12-22T15:27:09;7.30;99.90
46608;DHT22;32330;51.936;7.184;2023-12-22T15:29:36;7.40;99.90
46608;DHT22;32330;51.936;7.184;2023-12-22T15:32:05;7.60;99.90
46608;DHT22;32330;51.936;7.184;2023-12-22T15:34:32;7.80;99.90
46608;DHT22;32330;51.936;7.184;2023-12-22T15:36:59;7.90;99.90
46608;DHT22;32330;51.936;7.184;2023-12-22T15:39:25;7.90;99.90
46608;DHT22;32330;51.936;7.184;2023-12-22T15:41:52;7.90;99.90
46608;DHT22;32330;51.936;7.184;2023-12-22T15:44:19;7.90;99.90
46608;DHT22;32330;51.936;7.184;2023-12-22T15:46:46;8.00;99.90
46608;DHT22;32330;51.936;7.184;2023-12-22T15:49:15;8.10;99.90
46608;DHT22;32330;51.936;7.184;2023-12-22T15:51:42;8.10;99.90
46608;DHT22;32330;51.936;7.184;2023-12-22T15:54:09;8.20;99.90
46608;DHT22;32330;51.936;7.184;2023-12-22T15:56:36;8.30;99.90
46608;DHT22;32330;51.936;7.184;2023-12-22T15:59:03;8.30;99.90